sensor_id;sensor_type;location;lat;lon;timestamp;temperature;humidity
11497;DHT22;5805;51.542;7.230;2022-07-15T00:01:59;19.50;99.90
11497;DHT22;5805;51.542;7.230;2022-07-15T00:04:24;19.60;99.90
11497;DHT22;5805;51.542;7.230;2022-07-15T00:06:50;19.60;99.90
11497;DHT22;5805;51.542;7.230;2022-07-15T00:09:16;19.60;99.90
11497;DHT22;5805;51.542;7.230;2022-07-15T00:11:41;19.60;99.90
11497;DHT22;5805;51.542;7.230;2022-07-15T00:14:07;19.60;99.90
11497;DHT22;5805;51.542;7.230;2022-07-15T00:16:34;19.60;99.90
11497;DHT22;5805;51.542;7.230;2022-07-15T00:19:00;19.60;99.90
11497;DHT22;5805;51.542;7.230;2022-07-15T00:21:26;19.60;99.90
11497;DHT22;5805;51.542;7.230;2022-07-15T00:23:51;19.60;99.90
11497;DHT22;5805;51.542;7.230;2022-07-15T00:26:17;19.60;99.90
11497;DHT22;5805;51.542;7.230;2022-07-15T00:28:43;19.50;99.90
11497;DHT22;5805;51.542;7.230;2022-07-15T00:31:08;19.50;99.90
11497;DHT22;5805;51.542;7.230;2022-07-15T00:33:35;19.60;99.90
11497;DHT22;5805;51.542;7.230;2022-07-15T00:36:01;19.50;99.90
11497;DHT22;5805;51.542;7.230;2022-07-15T00:38:27;19.60;99.90
11497;DHT22;5805;51.542;7.230;2022-07-15T00:40:52;19.60;99.90
11497;DHT22;5805;51.542;7.230;2022-07-15T00:43:18;19.90;99.90
11497;DHT22;5805;51.542;7.230;2022-07-15T00:45:45;19.50;99.90
11497;DHT22;5805;51.542;7.230;2022-07-15T00:48:11;19.50;99.90
11497;DHT22;5805;51.542;7.230;2022-07-15T00:50:38;19.50;99.90
11497;DHT22;5805;51.542;7.230;2022-07-15T00:53:05;19.60;99.90
11497;DHT22;5805;51.542;7.230;2022-07-15T00:55:33;19.60;99.90
11497;DHT22;5805;51.542;7.230;2022-07-15T00:58:04;19.60;99.90
11497;DHT22;5805;51.542;7.230;2022-07-15T01:00:30;19.50;99.90
11497;DHT22;5805;51.542;7.230;2022-07-15T01:02:57;19.50;99.90
11497;DHT22;5805;51.542;7.230;2022-07-15T01:05:23;19.80;99.90
11497;DHT22;5805;51.542;7.230;2022-07-15T01:07:51;19.50;99.90
11497;DHT22;5805;51.542;7.230;2022-07-15T01:10:17;19.50;99.90
11497;DHT22;5805;51.542;7.230;2022-07-15T01:12:43;19.50;99.90
11497;DHT22;5805;51.542;7.230;2022-07-15T01:15:10;19.60;99.90
11497;DHT22;5805;51.542;7.230;2022-07-15T01:17:36;19.50;99.90
11497;DHT22;5805;51.542;7.230;2022-07-15T01:20:02;19.60;99.90
11497;DHT22;5805;51.542;7.230;2022-07-15T01:22:29;19.50;99.90
11497;DHT22;5805;51.542;7.230;2022-07-15T01:24:55;19.40;99.90
11497;DHT22;5805;51.542;7.230;2022-07-15T01:27:21;19.40;99.90
11497;DHT22;5805;51.542;7.230;2022-07-15T01:29:46;19.40;99.90
11497;DHT22;5805;51.542;7.230;2022-07-15T01:32:12;19.40;99.90
11497;DHT22;5805;51.542;7.230;2022-07-15T01:34:38;19.30;99.90
11497;DHT22;5805;51.542;7.230;2022-07-15T01:37:03;19.30;99.90
11497;DHT22;5805;51.542;7.230;2022-07-15T01:39:30;19.30;99.90
11497;DHT22;5805;51.542;7.230;2022-07-15T01:41:56;19.20;99.90
11497;DHT22;5805;51.542;7.230;2022-07-15T01:44:22;19.20;99.90
11497;DHT22;5805;51.542;7.230;2022-07-15T01:46:47;19.20;99.90
11497;DHT22;5805;51.542;7.230;2022-07-15T01:49:13;19.10;99.90
11497;DHT22;5805;51.542;7.230;2022-07-15T01:51:39;19.10;99.90
11497;DHT22;5805;51.542;7.230;2022-07-15T01:54:05;19.00;99.90
11497;DHT22;5805;51.542;7.230;2022-07-15T01:56:32;18.90;99.90
11497;DHT22;5805;51.542;7.230;2022-07-15T01:58:57;18.90;99.90
11497;DHT22;5805;51.542;7.230;2022-07-15T02:01:23;18.80;99.90
11497;DHT22;5805;51.542;7.230;2022-07-15T02:03:49;18.80;99.90
11497;DHT22;5805;51.542;7.230;2022-07-15T02:06:14;18.80;99.90
11497;DHT22;5805;51.542;7.230;2022-07-15T02:08:40;18.80;99.90
11497;DHT22;5805;51.542;7.230;2022-07-15T02:11:06;18.60;99.90
11497;DHT22;5805;51.542;7.230;2022-07-15T02:13:33;18.60;99.90
11497;DHT22;5805;51.542;7.230;2022-07-15T02:15:59;18.50;99.90
11497;DHT22;5805;51.542;7.230;2022-07-15T02:18:24;18.60;99.90
11497;DHT22;5805;51.542;7.230;2022-07-15T02:20:50;18.50;99.90
11497;DHT22;5805;51.542;7.230;2022-07-15T02:23:16;18.40;99.90
11497;DHT22;5805;51.542;7.230;2022-07-15T02:25:41;18.40;99.90
11497;DHT22;5805;51.542;7.230;2022-07-15T02:28:07;18.60;99.90
11497;DHT22;5805;51.542;7.230;2022-07-15T02:30:36;18.30;99.90
11497;DHT22;5805;51.542;7.230;2022-07-15T02:33:03;18.20;99.90
11497;DHT22;5805;51.542;7.230;2022-07-15T02:35:32;18.20;99.90
11497;DHT22;5805;51.542;7.230;2022-07-15T02:37:58;18.20;99.90
11497;DHT22;5805;51.542;7.230;2022-07-15T02:40:25;18.20;99.90
11497;DHT22;5805;51.542;7.230;2022-07-15T02:42:52;18.20;99.90
11497;DHT22;5805;51.542;7.230;2022-07-15T02:45:19;18.10;99.90
11497;DHT22;5805;51.542;7.230;2022-07-15T02:47:46;18.10;99.90
11497;DHT22;5805;51.542;7.230;2022-07-15T02:50:12;18.00;99.90
11497;DHT22;5805;51.542;7.230;2022-07-15T02:52:38;18.00;99.90
11497;DHT22;5805;51.542;7.230;2022-07-15T02:55:05;18.00;99.90
11497;DHT22;5805;51.542;7.230;2022-07-15T02:57:31;17.90;99.90
11497;DHT22;5805;51.542;7.230;2022-07-15T02:59:56;17.90;99.90
11497;DHT22;5805;51.542;7.230;2022-07-15T03:02:22;17.90;99.90
11497;DHT22;5805;51.542;7.230;2022-07-15T03:04:49;17.80;99.90
11497;DHT22;5805;51.542;7.230;2022-07-15T03:07:15;17.80;99.90
11497;DHT22;5805;51.542;7.230;2022-07-15T03:09:40;17.80;99.90
11497;DHT22;5805;51.542;7.230;2022-07-15T03:12:06;17.80;99.90
11497;DHT22;5805;51.542;7.230;2022-07-15T03:14:32;17.80;99.90
11497;DHT22;5805;51.542;7.230;2022-07-15T03:16:58;17.80;99.90
11497;DHT22;5805;51.542;7.230;2022-07-15T03:19:24;17.70;99.90
11497;DHT22;5805;51.542;7.230;2022-07-15T03:21:51;17.70;99.90
11497;DHT22;5805;51.542;7.230;2022-07-15T03:24:16;17.60;99.90
11497;DHT22;5805;51.542;7.230;2022-07-15T03:26:42;17.60;99.90
11497;DHT22;5805;51.542;7.230;2022-07-15T03:29:08;17.60;99.90
11497;DHT22;5805;51.542;7.230;2022-07-15T03:31:34;17.60;99.90
11497;DHT22;5805;51.542;7.230;2022-07-15T03:34:00;17.50;99.90
11497;DHT22;5805;51.542;7.230;2022-07-15T03:36:26;17.90;99.90
11497;DHT22;5805;51.542;7.230;2022-07-15T03:38:53;17.50;99.90
11497;DHT22;5805;51.542;7.230;2022-07-15T03:41:19;17.40;99.90
11497;DHT22;5805;51.542;7.230;2022-07-15T03:43:46;17.40;99.90
11497;DHT22;5805;51.542;7.230;2022-07-15T03:46:11;17.40;99.90
11497;DHT22;5805;51.542;7.230;2022-07-15T03:48:37;17.40;99.90
11497;DHT22;5805;51.542;7.230;2022-07-15T03:51:03;17.40;99.90
11497;DHT22;5805;51.542;7.230;2022-07-15T03:53:29;17.40;99.90
11497;DHT22;5805;51.542;7.230;2022-07-15T03:55:56;17.30;99.90
11497;DHT22;5805;51.542;7.230;2022-07-15T03:58:21;17.30;99.90
11497;DHT22;5805;51.542;7.230;2022-07-15T04:00:47;17.30;99.90
11497;DHT22;5805;51.542;7.230;2022-07-15T04:03:13;17.30;99.90
11497;DHT22;5805;51.542;7.230;2022-07-15T04:05:38;17.40;99.90
11497;DHT22;5805;51.542;7.230;2022-07-15T04:08:04;17.40;99.90
11497;DHT22;5805;51.542;7.230;2022-07-15T04:10:30;17.40;99.90
11497;DHT22;5805;51.542;7.230;2022-07-15T04:12:57;17.40;99.90
11497;DHT22;5805;51.542;7.230;2022-07-15T04:15:23;17.40;99.90
11497;DHT22;5805;51.542;7.230;2022-07-15T04:17:49;17.30;99.90
11497;DHT22;5805;51.542;7.230;2022-07-15T04:20:15;17.40;99.90
11497;DHT22;5805;51.542;7.230;2022-07-15T04:22:41;17.40;99.90
11497;DHT22;5805;51.542;7.230;2022-07-15T04:25:08;17.30;99.90
11497;DHT22;5805;51.542;7.230;2022-07-15T04:27:34;17.30;99.90
11497;DHT22;5805;51.542;7.230;2022-07-15T04:30:01;17.70;99.90
11497;DHT22;5805;51.542;7.230;2022-07-15T04:32:27;17.40;99.90
11497;DHT22;5805;51.542;7.230;2022-07-15T04:34:53;17.40;99.90
11497;DHT22;5805;51.542;7.230;2022-07-15T04:37:19;17.40;99.90
11497;DHT22;5805;51.542;7.230;2022-07-15T04:39:44;17.50;99.90
11497;DHT22;5805;51.542;7.230;2022-07-15T04:42:10;17.50;99.90
11497;DHT22;5805;51.542;7.230;2022-07-15T04:44:36;17.50;99.90
11497;DHT22;5805;51.542;7.230;2022-07-15T04:47:03;17.40;99.90
11497;DHT22;5805;51.542;7.230;2022-07-15T04:49:28;17.50;99.90
11497;DHT22;5805;51.542;7.230;2022-07-15T04:51:54;17.50;99.90
11497;DHT22;5805;51.542;7.230;2022-07-15T04:54:20;17.50;99.90
11497;DHT22;5805;51.542;7.230;2022-07-15T04:56:45;17.40;99.90
11497;DHT22;5805;51.542;7.230;2022-07-15T04:59:11;17.40;99.90
11497;DHT22;5805;51.542;7.230;2022-07-15T05:01:37;17.40;99.90
11497;DHT22;5805;51.542;7.230;2022-07-15T05:04:04;17.50;99.90
11497;DHT22;5805;51.542;7.230;2022-07-15T05:06:30;17.50;99.90
11497;DHT22;5805;51.542;7.230;2022-07-15T05:08:55;17.50;99.90
11497;DHT22;5805;51.542;7.230;2022-07-15T05:11:21;17.60;99.90
11497;DHT22;5805;51.542;7.230;2022-07-15T05:13:47;17.60;99.90
11497;DHT22;5805;51.542;7.230;2022-07-15T05:16:12;17.70;99.90
11497;DHT22;5805;51.542;7.230;2022-07-15T05:18:38;17.70;99.90
11497;DHT22;5805;51.542;7.230;2022-07-15T05:21:05;17.80;99.90
11497;DHT22;5805;51.542;7.230;2022-07-15T05:23:31;17.80;99.90
11497;DHT22;5805;51.542;7.230;2022-07-15T05:25:56;17.90;99.90
11497;DHT22;5805;51.542;7.230;2022-07-15T05:28:22;18.00;99.90
11497;DHT22;5805;51.542;7.230;2022-07-15T05:30:48;18.00;99.90
11497;DHT22;5805;51.542;7.230;2022-07-15T05:33:15;17.90;99.90
11497;DHT22;5805;51.542;7.230;2022-07-15T05:35:41;17.90;99.90
11497;DHT22;5805;51.542;7.230;2022-07-15T05:38:08;17.90;99.90
11497;DHT22;5805;51.542;7.230;2022-07-15T05:40:34;18.00;99.90
11497;DHT22;5805;51.542;7.230;2022-07-15T05:42:59;18.10;99.90
11497;DHT22;5805;51.542;7.230;2022-07-15T05:45:25;18.20;99.90
11497;DHT22;5805;51.542;7.230;2022-07-15T05:47:51;18.20;99.90
11497;DHT22;5805;51.542;7.230;2022-07-15T05:50:18;18.30;99.90
11497;DHT22;5805;51.542;7.230;2022-07-15T05:52:44;18.40;99.90
11497;DHT22;5805;51.542;7.230;2022-07-15T05:55:11;18.40;99.90
11497;DHT22;5805;51.542;7.230;2022-07-15T05:57:37;18.40;99.90
11497;DHT22;5805;51.542;7.230;2022-07-15T06:00:04;18.50;99.90
11497;DHT22;5805;51.542;7.230;2022-07-15T06:02:30;18.50;99.90
11497;DHT22;5805;51.542;7.230;2022-07-15T06:04:55;18.80;99.90
11497;DHT22;5805;51.542;7.230;2022-07-15T06:07:21;19.00;99.90
11497;DHT22;5805;51.542;7.230;2022-07-15T06:09:47;19.10;99.90
11497;DHT22;5805;51.542;7.230;2022-07-15T06:12:14;19.20;99.90
11497;DHT22;5805;51.542;7.230;2022-07-15T06:14:40;19.20;99.90
11497;DHT22;5805;51.542;7.230;2022-07-15T06:17:05;19.10;99.90
11497;DHT22;5805;51.542;7.230;2022-07-15T06:19:31;19.00;99.90
11497;DHT22;5805;51.542;7.230;2022-07-15T06:21:56;18.90;99.90
11497;DHT22;5805;51.542;7.230;2022-07-15T06:24:22;18.90;99.90
11497;DHT22;5805;51.542;7.230;2022-07-15T06:26:48;19.00;99.90
11497;DHT22;5805;51.542;7.230;2022-07-15T06:29:15;19.20;99.90
11497;DHT22;5805;51.542;7.230;2022-07-15T06:31:41;19.20;99.60
11497;DHT22;5805;51.542;7.230;2022-07-15T06:34:06;19.20;99.00
11497;DHT22;5805;51.542;7.230;2022-07-15T06:36:32;19.30;98.80
11497;DHT22;5805;51.542;7.230;2022-07-15T06:38:58;19.70;99.00
11497;DHT22;5805;51.542;7.230;2022-07-15T06:41:23;19.60;99.00
11497;DHT22;5805;51.542;7.230;2022-07-15T06:43:49;19.80;98.60
11497;DHT22;5805;51.542;7.230;2022-07-15T06:46:16;19.90;97.90
11497;DHT22;5805;51.542;7.230;2022-07-15T06:48:42;20.00;96.20
11497;DHT22;5805;51.542;7.230;2022-07-15T06:51:08;20.10;96.40
11497;DHT22;5805;51.542;7.230;2022-07-15T06:53:33;20.20;95.80
11497;DHT22;5805;51.542;7.230;2022-07-15T06:55:59;20.40;95.80
11497;DHT22;5805;51.542;7.230;2022-07-15T06:58:25;20.50;94.60
11497;DHT22;5805;51.542;7.230;2022-07-15T07:00:51;20.60;93.50
11497;DHT22;5805;51.542;7.230;2022-07-15T07:03:18;20.60;93.70
11497;DHT22;5805;51.542;7.230;2022-07-15T07:05:43;20.70;93.30
11497;DHT22;5805;51.542;7.230;2022-07-15T07:08:09;20.90;93.10
11497;DHT22;5805;51.542;7.230;2022-07-15T07:10:35;21.00;91.60
11497;DHT22;5805;51.542;7.230;2022-07-15T07:13:00;21.10;91.80
11497;DHT22;5805;51.542;7.230;2022-07-15T07:15:26;21.30;91.60
11497;DHT22;5805;51.542;7.230;2022-07-15T07:17:52;21.40;87.30
11497;DHT22;5805;51.542;7.230;2022-07-15T07:20:19;21.30;86.20
11497;DHT22;5805;51.542;7.230;2022-07-15T07:22:45;21.20;85.20
11497;DHT22;5805;51.542;7.230;2022-07-15T07:25:11;21.20;87.00
11497;DHT22;5805;51.542;7.230;2022-07-15T07:27:36;21.20;86.50
11497;DHT22;5805;51.542;7.230;2022-07-15T07:30:03;21.20;87.10
11497;DHT22;5805;51.542;7.230;2022-07-15T07:32:28;21.30;86.60
11497;DHT22;5805;51.542;7.230;2022-07-15T07:34:54;21.30;87.20
11497;DHT22;5805;51.542;7.230;2022-07-15T07:37:21;21.50;87.60
11497;DHT22;5805;51.542;7.230;2022-07-15T07:39:47;21.60;87.00
11497;DHT22;5805;51.542;7.230;2022-07-15T07:42:12;21.80;86.90
11497;DHT22;5805;51.542;7.230;2022-07-15T07:44:38;21.90;85.70
11497;DHT22;5805;51.542;7.230;2022-07-15T07:47:04;22.00;84.70
11497;DHT22;5805;51.542;7.230;2022-07-15T07:49:30;21.90;83.90
11497;DHT22;5805;51.542;7.230;2022-07-15T07:51:55;21.80;83.10
11497;DHT22;5805;51.542;7.230;2022-07-15T07:54:22;21.70;84.50
11497;DHT22;5805;51.542;7.230;2022-07-15T07:56:48;21.60;84.50
11497;DHT22;5805;51.542;7.230;2022-07-15T07:59:14;21.50;84.80
11497;DHT22;5805;51.542;7.230;2022-07-15T08:01:39;21.60;85.70
11497;DHT22;5805;51.542;7.230;2022-07-15T08:04:05;21.80;86.10
11497;DHT22;5805;51.542;7.230;2022-07-15T08:06:31;22.10;84.50
11497;DHT22;5805;51.542;7.230;2022-07-15T08:08:57;22.40;81.50
11497;DHT22;5805;51.542;7.230;2022-07-15T08:11:24;22.50;80.50
11497;DHT22;5805;51.542;7.230;2022-07-15T08:13:49;22.70;79.80
11497;DHT22;5805;51.542;7.230;2022-07-15T08:16:15;22.80;80.00
11497;DHT22;5805;51.542;7.230;2022-07-15T08:18:42;23.10;77.80
11497;DHT22;5805;51.542;7.230;2022-07-15T08:21:08;23.50;76.60
11497;DHT22;5805;51.542;7.230;2022-07-15T08:23:33;23.70;74.40
11497;DHT22;5805;51.542;7.230;2022-07-15T08:25:59;23.60;72.30
11497;DHT22;5805;51.542;7.230;2022-07-15T08:28:26;23.50;73.10
11497;DHT22;5805;51.542;7.230;2022-07-15T08:30:52;23.30;72.40
11497;DHT22;5805;51.542;7.230;2022-07-15T08:33:17;23.20;71.20
11497;DHT22;5805;51.542;7.230;2022-07-15T08:35:43;23.00;71.40
11497;DHT22;5805;51.542;7.230;2022-07-15T08:38:10;22.70;72.90
11497;DHT22;5805;51.542;7.230;2022-07-15T08:40:37;22.60;74.40
11497;DHT22;5805;51.542;7.230;2022-07-15T08:43:05;22.80;74.60
11497;DHT22;5805;51.542;7.230;2022-07-15T08:45:34;23.20;73.70
11497;DHT22;5805;51.542;7.230;2022-07-15T08:48:01;25.00;66.80
11497;DHT22;5805;51.542;7.230;2022-07-15T08:50:28;27.30;63.60
11497;DHT22;5805;51.542;7.230;2022-07-15T08:52:54;29.70;55.90
11497;DHT22;5805;51.542;7.230;2022-07-15T08:55:20;32.00;49.10
11497;DHT22;5805;51.542;7.230;2022-07-15T08:57:47;33.70;42.40
11497;DHT22;5805;51.542;7.230;2022-07-15T09:00:23;35.10;38.50
11497;DHT22;5805;51.542;7.230;2022-07-15T09:02:51;35.60;35.90
11497;DHT22;5805;51.542;7.230;2022-07-15T09:05:23;35.60;35.40
11497;DHT22;5805;51.542;7.230;2022-07-15T09:07:58;35.30;34.60
11497;DHT22;5805;51.542;7.230;2022-07-15T09:10:26;33.90;35.20
11497;DHT22;5805;51.542;7.230;2022-07-15T09:13:05;32.20;36.70
11497;DHT22;5805;51.542;7.230;2022-07-15T09:15:32;30.60;39.90
11497;DHT22;5805;51.542;7.230;2022-07-15T09:18:11;29.30;41.00
11497;DHT22;5805;51.542;7.230;2022-07-15T09:20:38;28.10;42.70
11497;DHT22;5805;51.542;7.230;2022-07-15T09:23:04;27.10;44.10
11497;DHT22;5805;51.542;7.230;2022-07-15T09:25:31;26.40;45.60
11497;DHT22;5805;51.542;7.230;2022-07-15T09:27:57;26.00;46.70
11497;DHT22;5805;51.542;7.230;2022-07-15T09:30:24;26.10;47.50
11497;DHT22;5805;51.542;7.230;2022-07-15T09:32:57;26.20;47.50
11497;DHT22;5805;51.542;7.230;2022-07-15T09:35:27;26.50;47.00
11497;DHT22;5805;51.542;7.230;2022-07-15T09:37:56;26.20;46.00
11497;DHT22;5805;51.542;7.230;2022-07-15T09:40:22;25.80;46.50
11497;DHT22;5805;51.542;7.230;2022-07-15T09:43:00;25.50;47.20
11497;DHT22;5805;51.542;7.230;2022-07-15T09:45:26;25.10;48.50
11497;DHT22;5805;51.542;7.230;2022-07-15T09:48:07;25.00;48.90
11497;DHT22;5805;51.542;7.230;2022-07-15T09:50:35;25.00;49.20
11497;DHT22;5805;51.542;7.230;2022-07-15T09:53:03;25.00;49.00
11497;DHT22;5805;51.542;7.230;2022-07-15T09:55:30;24.90;49.10
11497;DHT22;5805;51.542;7.230;2022-07-15T09:57:56;24.80;49.70
11497;DHT22;5805;51.542;7.230;2022-07-15T10:00:23;24.80;50.20
11497;DHT22;5805;51.542;7.230;2022-07-15T10:02:49;24.80;50.40
11497;DHT22;5805;51.542;7.230;2022-07-15T10:05:16;24.80;50.30
11497;DHT22;5805;51.542;7.230;2022-07-15T10:07:44;24.80;50.30
11497;DHT22;5805;51.542;7.230;2022-07-15T10:10:10;25.10;50.00
11497;DHT22;5805;51.542;7.230;2022-07-15T10:12:46;25.30;49.90
11497;DHT22;5805;51.542;7.230;2022-07-15T10:15:25;25.40;49.60
11497;DHT22;5805;51.542;7.230;2022-07-15T10:18:07;25.60;49.90
11497;DHT22;5805;51.542;7.230;2022-07-15T10:20:55;26.00;49.40
11497;DHT22;5805;51.542;7.230;2022-07-15T10:23:35;26.10;48.90
11497;DHT22;5805;51.542;7.230;2022-07-15T10:26:14;26.00;48.80
11497;DHT22;5805;51.542;7.230;2022-07-15T10:28:51;25.60;49.40
11497;DHT22;5805;51.542;7.230;2022-07-15T10:31:20;25.30;50.00
11497;DHT22;5805;51.542;7.230;2022-07-15T10:36:56;24.70;51.40
11497;DHT22;5805;51.542;7.230;2022-07-15T10:39:25;24.50;51.90
11497;DHT22;5805;51.542;7.230;2022-07-15T10:41:52;24.50;52.10
11497;DHT22;5805;51.542;7.230;2022-07-15T10:44:18;24.50;52.50
11497;DHT22;5805;51.542;7.230;2022-07-15T10:46:44;24.50;52.60
11497;DHT22;5805;51.542;7.230;2022-07-15T10:49:30;24.40;52.50
11497;DHT22;5805;51.542;7.230;2022-07-15T10:52:10;24.40;53.10
11497;DHT22;5805;51.542;7.230;2022-07-15T10:54:45;24.30;53.50
11497;DHT22;5805;51.542;7.230;2022-07-15T10:57:11;24.30;53.60
11497;DHT22;5805;51.542;7.230;2022-07-15T10:59:39;24.30;53.90
11497;DHT22;5805;51.542;7.230;2022-07-15T11:02:12;24.30;54.00
11497;DHT22;5805;51.542;7.230;2022-07-15T11:04:38;24.20;54.00
11497;DHT22;5805;51.542;7.230;2022-07-15T11:07:34;24.20;53.80
11497;DHT22;5805;51.542;7.230;2022-07-15T11:10:18;24.10;53.40
11497;DHT22;5805;51.542;7.230;2022-07-15T11:13:06;24.00;53.60
11497;DHT22;5805;51.542;7.230;2022-07-15T11:15:33;24.00;54.00
11497;DHT22;5805;51.542;7.230;2022-07-15T11:17:59;24.10;54.40
11497;DHT22;5805;51.542;7.230;2022-07-15T11:20:28;24.30;54.10
11497;DHT22;5805;51.542;7.230;2022-07-15T11:22:57;24.80;54.10
11497;DHT22;5805;51.542;7.230;2022-07-15T11:25:26;25.10;53.10
11497;DHT22;5805;51.542;7.230;2022-07-15T11:28:05;25.30;52.80
11497;DHT22;5805;51.542;7.230;2022-07-15T11:30:34;25.50;51.70
11497;DHT22;5805;51.542;7.230;2022-07-15T11:33:02;25.70;52.00
11497;DHT22;5805;51.542;7.230;2022-07-15T11:35:29;25.70;50.20
11497;DHT22;5805;51.542;7.230;2022-07-15T11:38:00;25.70;49.10
11497;DHT22;5805;51.542;7.230;2022-07-15T11:40:28;25.70;49.40
11497;DHT22;5805;51.542;7.230;2022-07-15T11:42:54;25.80;49.70
11497;DHT22;5805;51.542;7.230;2022-07-15T11:45:34;26.00;48.60
11497;DHT22;5805;51.542;7.230;2022-07-15T11:48:00;26.00;49.50
11497;DHT22;5805;51.542;7.230;2022-07-15T11:50:26;26.00;48.70
11497;DHT22;5805;51.542;7.230;2022-07-15T11:52:55;25.90;48.60
11497;DHT22;5805;51.542;7.230;2022-07-15T11:55:21;25.70;49.00
11497;DHT22;5805;51.542;7.230;2022-07-15T11:57:48;25.60;49.10
11497;DHT22;5805;51.542;7.230;2022-07-15T12:00:14;25.60;49.60
11497;DHT22;5805;51.542;7.230;2022-07-15T12:02:40;25.60;49.50
11497;DHT22;5805;51.542;7.230;2022-07-15T12:05:07;25.70;49.90
11497;DHT22;5805;51.542;7.230;2022-07-15T12:07:41;26.00;50.00
11497;DHT22;5805;51.542;7.230;2022-07-15T12:10:08;26.20;49.40
11497;DHT22;5805;51.542;7.230;2022-07-15T12:12:34;26.40;48.70
11497;DHT22;5805;51.542;7.230;2022-07-15T12:15:01;26.40;48.40
11497;DHT22;5805;51.542;7.230;2022-07-15T12:17:26;26.50;48.30
11497;DHT22;5805;51.542;7.230;2022-07-15T12:19:52;26.60;47.60
11497;DHT22;5805;51.542;7.230;2022-07-15T12:22:18;26.60;46.70
11497;DHT22;5805;51.542;7.230;2022-07-15T12:24:45;26.60;45.30
11497;DHT22;5805;51.542;7.230;2022-07-15T12:27:12;26.50;45.50
11497;DHT22;5805;51.542;7.230;2022-07-15T12:29:38;26.30;45.40
11497;DHT22;5805;51.542;7.230;2022-07-15T12:32:07;26.20;46.30
11497;DHT22;5805;51.542;7.230;2022-07-15T12:34:51;26.20;45.90
11497;DHT22;5805;51.542;7.230;2022-07-15T12:37:20;26.20;46.00
11497;DHT22;5805;51.542;7.230;2022-07-15T12:39:57;26.10;46.10
11497;DHT22;5805;51.542;7.230;2022-07-15T12:42:23;26.00;46.10
11497;DHT22;5805;51.542;7.230;2022-07-15T12:45:04;26.00;46.30
11497;DHT22;5805;51.542;7.230;2022-07-15T12:47:31;25.90;45.80
11497;DHT22;5805;51.542;7.230;2022-07-15T12:49:59;25.90;46.50
11497;DHT22;5805;51.542;7.230;2022-07-15T12:52:30;25.90;46.30
11497;DHT22;5805;51.542;7.230;2022-07-15T12:54:57;26.00;45.70
11497;DHT22;5805;51.542;7.230;2022-07-15T12:57:28;26.00;45.80
11497;DHT22;5805;51.542;7.230;2022-07-15T12:59:56;25.80;46.00
11497;DHT22;5805;51.542;7.230;2022-07-15T13:02:23;25.70;46.60
11497;DHT22;5805;51.542;7.230;2022-07-15T13:04:50;25.60;46.40
11497;DHT22;5805;51.542;7.230;2022-07-15T13:07:16;25.50;46.90
11497;DHT22;5805;51.542;7.230;2022-07-15T13:09:42;25.50;47.40
11497;DHT22;5805;51.542;7.230;2022-07-15T13:12:08;25.60;46.90
11497;DHT22;5805;51.542;7.230;2022-07-15T13:14:35;25.60;44.90
11497;DHT22;5805;51.542;7.230;2022-07-15T13:17:01;25.50;44.20
11497;DHT22;5805;51.542;7.230;2022-07-15T13:19:26;25.60;45.00
11497;DHT22;5805;51.542;7.230;2022-07-15T13:21:53;25.70;44.80
11497;DHT22;5805;51.542;7.230;2022-07-15T13:24:19;25.70;45.40
11497;DHT22;5805;51.542;7.230;2022-07-15T13:26:45;25.90;45.50
11497;DHT22;5805;51.542;7.230;2022-07-15T13:29:10;25.90;45.10
11497;DHT22;5805;51.542;7.230;2022-07-15T13:31:36;25.90;45.10
11497;DHT22;5805;51.542;7.230;2022-07-15T13:34:02;26.10;45.60
11497;DHT22;5805;51.542;7.230;2022-07-15T13:36:28;26.30;45.50
11497;DHT22;5805;51.542;7.230;2022-07-15T13:38:55;26.60;45.70
11497;DHT22;5805;51.542;7.230;2022-07-15T13:41:20;26.80;44.90
11497;DHT22;5805;51.542;7.230;2022-07-15T13:43:46;26.90;44.60
11497;DHT22;5805;51.542;7.230;2022-07-15T13:46:12;27.00;44.30
11497;DHT22;5805;51.542;7.230;2022-07-15T13:48:37;27.00;44.20
11497;DHT22;5805;51.542;7.230;2022-07-15T13:51:03;26.90;44.00
11497;DHT22;5805;51.542;7.230;2022-07-15T13:53:29;27.00;43.40
11497;DHT22;5805;51.542;7.230;2022-07-15T13:55:56;26.90;43.00
11497;DHT22;5805;51.542;7.230;2022-07-15T13:58:22;27.00;43.20
11497;DHT22;5805;51.542;7.230;2022-07-15T14:00:48;26.90;43.30
11497;DHT22;5805;51.542;7.230;2022-07-15T14:03:13;27.00;44.30
11497;DHT22;5805;51.542;7.230;2022-07-15T14:05:39;27.00;43.10
11497;DHT22;5805;51.542;7.230;2022-07-15T14:08:05;26.90;42.90
11497;DHT22;5805;51.542;7.230;2022-07-15T14:10:30;26.80;42.90
11497;DHT22;5805;51.542;7.230;2022-07-15T14:12:58;26.60;43.00
11497;DHT22;5805;51.542;7.230;2022-07-15T14:15:23;26.50;43.50
11497;DHT22;5805;51.542;7.230;2022-07-15T14:17:49;26.50;43.80
11497;DHT22;5805;51.542;7.230;2022-07-15T14:20:15;26.50;43.70
11497;DHT22;5805;51.542;7.230;2022-07-15T14:22:41;26.50;43.80
11497;DHT22;5805;51.542;7.230;2022-07-15T14:25:07;26.50;43.50
11497;DHT22;5805;51.542;7.230;2022-07-15T14:27:33;26.50;43.00
11497;DHT22;5805;51.542;7.230;2022-07-15T14:30:00;26.40;44.10
11497;DHT22;5805;51.542;7.230;2022-07-15T14:32:25;26.40;43.60
11497;DHT22;5805;51.542;7.230;2022-07-15T14:34:51;26.40;43.70
11497;DHT22;5805;51.542;7.230;2022-07-15T14:37:17;26.40;43.40
11497;DHT22;5805;51.542;7.230;2022-07-15T14:39:43;26.40;43.50
11497;DHT22;5805;51.542;7.230;2022-07-15T14:42:08;26.20;43.40
11497;DHT22;5805;51.542;7.230;2022-07-15T14:44:34;25.90;43.60
11497;DHT22;5805;51.542;7.230;2022-07-15T14:47:02;25.70;44.50
11497;DHT22;5805;51.542;7.230;2022-07-15T14:49:28;25.50;44.90
11497;DHT22;5805;51.542;7.230;2022-07-15T14:51:53;25.40;45.00
11497;DHT22;5805;51.542;7.230;2022-07-15T14:54:19;25.30;45.90
11497;DHT22;5805;51.542;7.230;2022-07-15T14:56:45;25.20;45.20
11497;DHT22;5805;51.542;7.230;2022-07-15T14:59:10;25.10;45.10
11497;DHT22;5805;51.542;7.230;2022-07-15T15:01:36;25.10;45.40
11497;DHT22;5805;51.542;7.230;2022-07-15T15:04:03;25.10;45.50
11497;DHT22;5805;51.542;7.230;2022-07-15T15:06:29;25.20;45.70
11497;DHT22;5805;51.542;7.230;2022-07-15T15:08:55;25.20;45.30
11497;DHT22;5805;51.542;7.230;2022-07-15T15:11:20;25.30;45.90
11497;DHT22;5805;51.542;7.230;2022-07-15T15:13:46;25.50;45.90
11497;DHT22;5805;51.542;7.230;2022-07-15T15:16:12;25.70;45.90
11497;DHT22;5805;51.542;7.230;2022-07-15T15:18:38;25.80;45.70
11497;DHT22;5805;51.542;7.230;2022-07-15T15:21:05;25.90;45.40
11497;DHT22;5805;51.542;7.230;2022-07-15T15:23:30;26.00;45.20
11497;DHT22;5805;51.542;7.230;2022-07-15T15:25:56;26.10;45.30
11497;DHT22;5805;51.542;7.230;2022-07-15T15:28:22;26.20;45.40
11497;DHT22;5805;51.542;7.230;2022-07-15T15:30:48;26.20;45.10
11497;DHT22;5805;51.542;7.230;2022-07-15T15:33:13;26.20;44.60
11497;DHT22;5805;51.542;7.230;2022-07-15T15:35:39;26.20;44.40
11497;DHT22;5805;51.542;7.230;2022-07-15T15:38:06;26.10;44.60
11497;DHT22;5805;51.542;7.230;2022-07-15T15:40:32;26.10;44.60
11497;DHT22;5805;51.542;7.230;2022-07-15T15:42:57;26.20;44.40
11497;DHT22;5805;51.542;7.230;2022-07-15T15:45:23;26.10;44.00
11497;DHT22;5805;51.542;7.230;2022-07-15T15:47:49;26.00;44.30